Terminal Aerodrome Forecast
Issued by NWS

Home | Current Version | Previous Version | Text Only | Print | Product List | Glossary On
Versions: 1 2 3 4 5 6 7 8 9 10 11 12 13 14 15 16 17 18 19 20 21 22
000
FTUS44 KTSA 191700
TAFBVO
TAF
KBVO 191720Z 1918/2018 16007KT 4SM BR OVC007
     FM191900 16007KT P6SM OVC015
     FM192000 16005KT P6SM SCT025
     FM200600 00000KT 2SM BR FEW250
      TEMPO 2010/2014 1SM BR OVC003
     FM201500 19006KT 4SM BR SKC
     FM201600 19006KT P6SM SCT050=

USA.gov is the U.S. government's official web portal to all federal, state and local government web resources and services.